CYTH

Thompson Airport

Thompson, Manitoba, Canada
METAR CYTH 181500Z 08004KT 050V120 5SM -SN OVC009 M14/M16 A2972 RMK SC8 CIG RAG SLP090
Observed Flight Rules
Jan-18 @ 15:00 UTC (25 minutes ago) Instrument Flight Rules
Wind Visibility Clouds Conditions
80° at 4 knots 5 miles
  • Overcast at 900' AGL
  • Light Snow
Temperatures Readings
Current -14°C / 7°F
Dewpoint -16°C / 3°F
Humidity 85%
Altimeter 29.72" Hg
Pressure 1009 hPa
Elevation 218
METAR CYTH 181500Z 08004KT 050V120 5SM -SN OVC009 M14/M16 A2972 RMK SC8 CIG RAG SLP090
Observed Flight Rules
Jan-18 @ 15:00 UTC
(25 minutes ago)
IFR
Wind Visibility
80° at 4 knots 5 miles
Clouds
  • Overcast at 900' AGL
Conditions
  • Light Snow
Temperature Dewpoint
-14°C / 7°F -16°C / 3°F
Humidity Altimeter Pressure
85% 29.72" Hg 1009 hPa